Wind From: 13-12-2017 10:08 Until: 14-12-2017 06:00 warning for: Wind Level: Yellow info button

Although rather usual in this region, locally or potentially dangerous phenomena are expected. (such as local winds, summer thunderstorms, rising streams or high waves) Be aware and pay attention to the latest weather updates, especially if you carry out activities exposed to weather or close to a stream or shoreline. 


Meteo18 Weather Cam more information Meteo18 Weather Cam


Thunder radar more information blitzortung!


Rain radar more information rain snow radar


Visit our other weather sites:

Template documentation
and downloads

And another site



Weather Underground History page Text

Daily Summary for April 7, 2017 Units:  Metric    English   Both
« Previous Day
Next Day »
Daily Weekly Monthly Yearly Custom
  High: Low: Average:
Temperature: 18.0 °C 3.6 °C 10.4 °C
Dew Point: 8.1 °C 1.8 °C 4.8 °C
Humidity: 89 % 47 % 70 %
Wind Speed: 19.3 km/h 0.0 km/h 6.1 km/h
Wind Gust: 27.4 km/h - -
Wind:- - ESE
Pressure: 1028.0 hPa 1023.9 hPa -
Precipitation: 0.0 mm    
Historical Graphs
 
 
Tabular Data for April 7, 2017
Time Temperature Dew Point Pressure Wind Wind Speed Wind Gust Humidity Rainfall Rate (Hourly)
00:02 5.9 °C 2.9 °C 1028.0 hPa NNW 1.6 km/h 6.4 km/h 81 % 0.0 mm
00:07 5.9 °C 2.9 °C 1028.0 hPa NNE 3.2 km/h 4.8 km/h 81 % 0.0 mm
00:12 5.8 °C 2.8 °C 1028.0 hPa NNE 3.2 km/h 4.8 km/h 81 % 0.0 mm
00:17 5.8 °C 3.0 °C 1028.0 hPa NNW 3.2 km/h 6.4 km/h 82 % 0.0 mm
00:22 5.7 °C 2.7 °C 1027.7 hPa NW 1.6 km/h 6.4 km/h 81 % 0.0 mm
00:27 5.7 °C 2.9 °C 1027.7 hPa Calm   6.4 km/h 82 % 0.0 mm
00:32 5.6 °C 2.8 °C 1027.7 hPa Calm   4.8 km/h 82 % 0.0 mm
00:37 5.6 °C 2.8 °C 1027.7 hPa NNW 3.2 km/h 4.8 km/h 82 % 0.0 mm
00:47 5.5 °C 2.8 °C 1027.7 hPa NNW 1.6 km/h 4.8 km/h 83 % 0.0 mm
00:52 5.6 °C 2.8 °C 1027.7 hPa NW 3.2 km/h 4.8 km/h 82 % 0.0 mm
00:57 5.6 °C 2.9 °C 1027.7 hPa NW 1.6 km/h 4.8 km/h 83 % 0.0 mm
01:02 5.6 °C 2.8 °C 1027.7 hPa NW 1.6 km/h 4.8 km/h 82 % 0.0 mm
01:07 5.6 °C 2.8 °C 1027.7 hPa NW 1.6 km/h 4.8 km/h 82 % 0.0 mm
01:12 5.6 °C 2.8 °C 1027.7 hPa NW 3.2 km/h 4.8 km/h 82 % 0.0 mm
01:17 5.6 °C 2.8 °C 1027.7 hPa NNW 1.6 km/h 8.0 km/h 82 % 0.0 mm
01:22 5.6 °C 2.9 °C 1027.7 hPa NW 3.2 km/h 8.0 km/h 83 % 0.0 mm
01:27 5.6 °C 2.9 °C 1027.7 hPa NNW 1.6 km/h 8.0 km/h 83 % 0.0 mm
01:32 5.5 °C 2.8 °C 1027.7 hPa NW 4.8 km/h 8.0 km/h 83 % 0.0 mm
01:37 5.4 °C 2.7 °C 1027.7 hPa WNW 3.2 km/h 8.0 km/h 83 % 0.0 mm
01:42 5.3 °C 2.6 °C 1027.7 hPa NNW 3.2 km/h 6.4 km/h 83 % 0.0 mm
01:47 5.3 °C 2.6 °C 1027.7 hPa NNW 1.6 km/h 6.4 km/h 83 % 0.0 mm
01:52 5.3 °C 2.8 °C 1027.7 hPa NNW 3.2 km/h 6.4 km/h 84 % 0.0 mm
01:57 5.2 °C 2.7 °C 1027.7 hPa North 1.6 km/h 6.4 km/h 84 % 0.0 mm
02:02 5.2 °C 2.7 °C 1027.3 hPa NW 4.8 km/h 8.0 km/h 84 % 0.0 mm
02:07 5.2 °C 2.7 °C 1027.3 hPa NW 3.2 km/h 8.0 km/h 84 % 0.0 mm
02:12 5.1 °C 2.6 °C 1027.3 hPa NW 1.6 km/h 8.0 km/h 84 % 0.0 mm
02:17 5.1 °C 2.6 °C 1027.3 hPa NW 4.8 km/h 8.0 km/h 84 % 0.0 mm
02:22 5.1 °C 2.8 °C 1027.3 hPa NNW 1.6 km/h 8.0 km/h 85 % 0.0 mm
02:27 5.1 °C 2.8 °C 1027.0 hPa NW 1.6 km/h 6.4 km/h 85 % 0.0 mm
02:32 5.1 °C 2.8 °C 1027.3 hPa NNW 4.8 km/h 6.4 km/h 85 % 0.0 mm
02:37 5.0 °C 2.7 °C 1027.0 hPa NNW 1.6 km/h 6.4 km/h 85 % 0.0 mm
02:42 4.9 °C 2.6 °C 1027.0 hPa North 3.2 km/h 9.7 km/h 85 % 0.0 mm
02:47 4.9 °C 2.6 °C 1027.0 hPa NE 3.2 km/h 9.7 km/h 85 % 0.0 mm
02:52 4.9 °C 2.6 °C 1027.0 hPa NNW 3.2 km/h 9.7 km/h 85 % 0.0 mm
02:57 4.9 °C 2.6 °C 1027.0 hPa NW 3.2 km/h 9.7 km/h 85 % 0.0 mm
03:02 4.9 °C 2.6 °C 1027.0 hPa NNE 4.8 km/h 8.0 km/h 85 % 0.0 mm
03:07 4.9 °C 2.6 °C 1027.0 hPa North 3.2 km/h 11.3 km/h 85 % 0.0 mm
03:12 4.9 °C 2.6 °C 1026.6 hPa NNW 3.2 km/h 11.3 km/h 85 % 0.0 mm
03:17 4.9 °C 2.6 °C 1026.6 hPa NNW 3.2 km/h 11.3 km/h 85 % 0.0 mm
03:22 4.8 °C 2.5 °C 1026.6 hPa NNE 4.8 km/h 9.7 km/h 85 % 0.0 mm
03:27 4.8 °C 2.5 °C 1026.6 hPa North 1.6 km/h 9.7 km/h 85 % 0.0 mm
03:32 4.7 °C 2.6 °C 1026.6 hPa NNW 3.2 km/h 6.4 km/h 86 % 0.0 mm
03:37 4.7 °C 2.6 °C 1026.6 hPa NNW 3.2 km/h 6.4 km/h 86 % 0.0 mm
03:42 4.7 °C 2.6 °C 1026.6 hPa North 1.6 km/h 4.8 km/h 86 % 0.0 mm
03:47 4.7 °C 2.6 °C 1026.6 hPa North 1.6 km/h 4.8 km/h 86 % 0.0 mm
03:52 4.6 °C 2.5 °C 1026.6 hPa North 3.2 km/h 4.8 km/h 86 % 0.0 mm
03:57 4.6 °C 2.5 °C 1026.6 hPa North 3.2 km/h 4.8 km/h 86 % 0.0 mm
04:02 4.7 °C 2.6 °C 1026.6 hPa Calm   9.7 km/h 86 % 0.0 mm
04:07 4.7 °C 2.6 °C 1026.6 hPa NW 3.2 km/h 9.7 km/h 86 % 0.0 mm
04:12 4.6 °C 2.5 °C 1026.6 hPa North 3.2 km/h 9.7 km/h 86 % 0.0 mm
04:17 4.6 °C 2.5 °C 1026.6 hPa NNW 4.8 km/h 6.4 km/h 86 % 0.0 mm
04:22 4.6 °C 2.5 °C 1026.6 hPa North 3.2 km/h 8.0 km/h 86 % 0.0 mm
04:27 4.6 °C 2.5 °C 1026.6 hPa North 6.4 km/h 8.0 km/h 86 % 0.0 mm
04:32 4.4 °C 2.3 °C 1026.3 hPa North 4.8 km/h 8.0 km/h 86 % 0.0 mm
04:37 4.4 °C 2.3 °C 1026.3 hPa North 4.8 km/h 9.7 km/h 86 % 0.0 mm
04:42 4.3 °C 2.3 °C 1026.3 hPa North 3.2 km/h 9.7 km/h 87 % 0.0 mm
04:52 4.2 °C 2.2 °C 1026.3 hPa NNW 3.2 km/h 9.7 km/h 87 % 0.0 mm
04:57 4.2 °C 2.2 °C 1026.3 hPa North 4.8 km/h 8.0 km/h 87 % 0.0 mm
05:02 4.2 °C 2.2 °C 1026.3 hPa North 3.2 km/h 8.0 km/h 87 % 0.0 mm
05:12 4.2 °C 2.2 °C 1026.3 hPa NNW 3.2 km/h 9.7 km/h 87 % 0.0 mm
05:17 4.2 °C 2.2 °C 1026.3 hPa NNE 4.8 km/h 9.7 km/h 87 % 0.0 mm
05:22 4.2 °C 2.2 °C 1026.3 hPa Calm   9.7 km/h 87 % 0.0 mm
05:27 4.2 °C 2.2 °C 1026.3 hPa NNE 3.2 km/h 6.4 km/h 87 % 0.0 mm
05:32 4.3 °C 2.3 °C 1026.3 hPa NW 6.4 km/h 8.0 km/h 87 % 0.0 mm
05:37 4.3 °C 2.3 °C 1026.3 hPa NNE 6.4 km/h 8.0 km/h 87 % 0.0 mm
05:42 4.3 °C 2.2 °C 1026.3 hPa NNE 3.2 km/h 11.3 km/h 86 % 0.0 mm
05:47 4.2 °C 2.2 °C 1026.3 hPa North 3.2 km/h 11.3 km/h 87 % 0.0 mm
05:52 4.1 °C 2.1 °C 1026.3 hPa North 3.2 km/h 11.3 km/h 87 % 0.0 mm
05:57 3.9 °C 1.9 °C 1026.3 hPa NNE 4.8 km/h 11.3 km/h 87 % 0.0 mm
06:02 3.9 °C 1.9 °C 1026.3 hPa North 6.4 km/h 11.3 km/h 87 % 0.0 mm
06:07 3.8 °C 1.8 °C 1026.0 hPa North 3.2 km/h 11.3 km/h 87 % 0.0 mm
06:12 3.8 °C 1.8 °C 1026.3 hPa NE 4.8 km/h 8.0 km/h 87 % 0.0 mm
06:17 3.7 °C 1.9 °C 1026.3 hPa North 8.0 km/h 8.0 km/h 88 % 0.0 mm
06:22 3.8 °C 2.0 °C 1026.3 hPa North 6.4 km/h 8.0 km/h 88 % 0.0 mm
06:27 3.9 °C 2.1 °C 1026.3 hPa North 1.6 km/h 8.0 km/h 88 % 0.0 mm
06:32 3.9 °C 2.1 °C 1026.0 hPa NNE 3.2 km/h 11.3 km/h 88 % 0.0 mm
06:37 3.8 °C 2.0 °C 1026.0 hPa North 4.8 km/h 11.3 km/h 88 % 0.0 mm
06:42 3.8 °C 2.0 °C 1026.0 hPa Calm   11.3 km/h 88 % 0.0 mm
06:47 3.7 °C 1.9 °C 1026.0 hPa NNW 6.4 km/h 11.3 km/h 88 % 0.0 mm
06:57 3.6 °C 1.8 °C 1026.0 hPa NNE 3.2 km/h 9.7 km/h 88 % 0.0 mm
07:02 3.6 °C 2.0 °C 1026.0 hPa NW 3.2 km/h 8.0 km/h 89 % 0.0 mm
07:12 3.6 °C 2.0 °C 1025.6 hPa Calm   9.7 km/h 89 % 0.0 mm
07:17 3.6 °C 2.0 °C 1026.0 hPa NNE 4.8 km/h 9.7 km/h 89 % 0.0 mm
07:22 3.6 °C 2.0 °C 1026.0 hPa NNW 9.7 km/h 9.7 km/h 89 % 0.0 mm
07:32 3.8 °C 2.0 °C 1026.0 hPa NNE 4.8 km/h 12.9 km/h 88 % 0.0 mm
07:37 3.8 °C 2.0 °C 1026.0 hPa North 3.2 km/h 12.9 km/h 88 % 0.0 mm
07:42 3.8 °C 2.0 °C 1026.0 hPa NNE 4.8 km/h 8.0 km/h 88 % 0.0 mm
07:47 3.9 °C 2.1 °C 1026.0 hPa North 3.2 km/h 8.0 km/h 88 % 0.0 mm
07:57 4.2 °C 2.4 °C 1026.0 hPa NNE 3.2 km/h 8.0 km/h 88 % 0.0 mm
08:02 4.3 °C 2.3 °C 1026.0 hPa NE 3.2 km/h 8.0 km/h 87 % 0.0 mm
08:07 4.4 °C 2.4 °C 1026.0 hPa NNE 1.6 km/h 12.9 km/h 87 % 0.0 mm
08:12 4.6 °C 2.6 °C 1026.0 hPa NNW 3.2 km/h 12.9 km/h 87 % 0.0 mm
08:17 4.6 °C 2.6 °C 1026.0 hPa NNE 6.4 km/h 12.9 km/h 87 % 0.0 mm
08:22 4.8 °C 2.8 °C 1026.0 hPa NE 3.2 km/h 11.3 km/h 87 % 0.0 mm
08:32 5.0 °C 2.9 °C 1026.3 hPa NNW 4.8 km/h 11.3 km/h 86 % 0.0 mm
08:37 5.2 °C 3.1 °C 1026.0 hPa NE 4.8 km/h 11.3 km/h 86 % 0.0 mm
08:42 5.3 °C 3.0 °C 1026.3 hPa NW 3.2 km/h 9.7 km/h 85 % 0.0 mm
08:47 5.4 °C 2.9 °C 1026.3 hPa NE 9.7 km/h 12.9 km/h 84 % 0.0 mm
08:52 5.6 °C 2.9 °C 1026.3 hPa NNE 4.8 km/h 12.9 km/h 83 % 0.0 mm
08:57 5.8 °C 3.1 °C 1026.3 hPa ENE 1.6 km/h 12.9 km/h 83 % 0.0 mm
09:02 5.9 °C 3.1 °C 1026.6 hPa NNE 8.0 km/h 12.9 km/h 82 % 0.0 mm
09:12 6.3 °C 3.5 °C 1026.6 hPa NE 3.2 km/h 16.1 km/h 82 % 0.0 mm
09:17 6.4 °C 3.4 °C 1026.6 hPa ENE 6.4 km/h 16.1 km/h 81 % 0.0 mm
09:22 6.5 °C 3.3 °C 1026.6 hPa NNE 11.3 km/h 14.5 km/h 80 % 0.0 mm
09:27 6.7 °C 3.3 °C 1026.6 hPa NNE 12.9 km/h 16.1 km/h 79 % 0.0 mm
09:32 6.8 °C 3.6 °C 1026.6 hPa NE 6.4 km/h 16.1 km/h 80 % 0.0 mm
09:37 6.9 °C 3.5 °C 1026.6 hPa NNE 9.7 km/h 16.1 km/h 79 % 0.0 mm
09:42 7.0 °C 3.6 °C 1026.6 hPa NE 8.0 km/h 14.5 km/h 79 % 0.0 mm
09:47 7.2 °C 3.6 °C 1026.6 hPa NNE 9.7 km/h 14.5 km/h 78 % 0.0 mm
09:52 7.3 °C 3.7 °C 1026.6 hPa ENE 1.6 km/h 12.9 km/h 78 % 0.0 mm
09:57 7.5 °C 3.7 °C 1027.0 hPa NE 8.0 km/h 12.9 km/h 77 % 0.0 mm
10:02 7.7 °C 3.9 °C 1027.0 hPa NE 11.3 km/h 16.1 km/h 77 % 0.0 mm
10:12 8.1 °C 3.9 °C 1026.6 hPa NNE 11.3 km/h 16.1 km/h 75 % 0.0 mm
10:17 8.1 °C 3.9 °C 1026.6 hPa NNE 6.4 km/h 17.7 km/h 75 % 0.0 mm
10:22 8.4 °C 4.0 °C 1026.6 hPa NE 11.3 km/h 20.9 km/h 74 % 0.0 mm
10:32 8.8 °C 4.0 °C 1026.6 hPa NE 4.8 km/h 20.9 km/h 72 % 0.0 mm
10:42 9.4 °C 4.4 °C 1026.6 hPa East 1.6 km/h 17.7 km/h 71 % 0.0 mm
10:47 9.5 °C 4.5 °C 1026.6 hPa ENE 6.4 km/h 16.1 km/h 71 % 0.0 mm
10:52 9.4 °C 4.0 °C 1026.6 hPa NE 8.0 km/h 14.5 km/h 69 % 0.0 mm
10:57 9.6 °C 4.4 °C 1026.6 hPa North 9.7 km/h 17.7 km/h 70 % 0.0 mm
11:02 9.8 °C 4.2 °C 1027.0 hPa NE 14.5 km/h 17.7 km/h 68 % 0.0 mm
11:07 10.1 °C 4.7 °C 1027.0 hPa NE 6.4 km/h 17.7 km/h 69 % 0.0 mm
11:12 10.1 °C 4.0 °C 1027.0 hPa NE 12.9 km/h 17.7 km/h 66 % 0.0 mm
11:17 10.2 °C 4.1 °C 1027.0 hPa ENE 3.2 km/h 17.7 km/h 66 % 0.0 mm
11:22 10.3 °C 4.2 °C 1027.0 hPa NNE 8.0 km/h 17.7 km/h 66 % 0.0 mm
11:27 10.5 °C 4.6 °C 1027.0 hPa North 8.0 km/h 17.7 km/h 67 % 0.0 mm
11:32 10.6 °C 4.3 °C 1027.0 hPa NNE 9.7 km/h 16.1 km/h 65 % 0.0 mm
11:37 10.8 °C 4.5 °C 1027.0 hPa ENE 12.9 km/h 19.3 km/h 65 % 0.0 mm
11:42 11.1 °C 4.3 °C 1027.0 hPa NNE 8.0 km/h 19.3 km/h 63 % 0.0 mm
11:47 11.2 °C 4.4 °C 1026.6 hPa NNE 8.0 km/h 16.1 km/h 63 % 0.0 mm
11:52 11.3 °C 4.7 °C 1026.6 hPa East 9.7 km/h 16.1 km/h 64 % 0.0 mm
11:57 11.6 °C 5.0 °C 1026.6 hPa East 4.8 km/h 16.1 km/h 64 % 0.0 mm
12:02 11.9 °C 5.1 °C 1026.6 hPa ENE 4.8 km/h 14.5 km/h 63 % 0.0 mm
12:07 11.8 °C 4.3 °C 1026.6 hPa NNW 4.8 km/h 16.1 km/h 60 % 0.0 mm
12:12 12.1 °C 4.8 °C 1026.6 hPa NNW 12.9 km/h 16.1 km/h 61 % 0.0 mm
12:17 12.2 °C 4.4 °C 1026.6 hPa ENE 9.7 km/h 20.9 km/h 59 % 0.0 mm
12:22 12.2 °C 4.2 °C 1026.6 hPa NNE 16.1 km/h 20.9 km/h 58 % 0.0 mm
12:27 12.2 °C 4.4 °C 1026.6 hPa ENE 8.0 km/h 20.9 km/h 59 % 0.0 mm
12:32 12.5 °C 4.5 °C 1026.6 hPa NE 9.7 km/h 20.9 km/h 58 % 0.0 mm
12:37 12.7 °C 4.4 °C 1026.6 hPa NE 8.0 km/h 17.7 km/h 57 % 0.0 mm
12:42 12.6 °C 4.3 °C 1026.6 hPa East 6.4 km/h 24.1 km/h 57 % 0.0 mm
12:47 12.9 °C 4.6 °C 1026.6 hPa NE 6.4 km/h 27.4 km/h 57 % 0.0 mm
12:52 13.1 °C 4.3 °C 1026.6 hPa ENE 8.0 km/h 27.4 km/h 55 % 0.0 mm
12:57 13.2 °C 4.9 °C 1026.6 hPa ENE 9.7 km/h 22.5 km/h 57 % 0.0 mm
13:02 13.2 °C 4.4 °C 1026.6 hPa NE 11.3 km/h 22.5 km/h 55 % 0.0 mm
13:07 13.6 °C 5.0 °C 1026.6 hPa NE 8.0 km/h 25.7 km/h 56 % 0.0 mm
13:12 13.8 °C 5.7 °C 1026.3 hPa NE 6.4 km/h 25.7 km/h 58 % 0.0 mm
13:17 14.2 °C 5.3 °C 1026.3 hPa East 14.5 km/h 22.5 km/h 55 % 0.0 mm
13:22 14.2 °C 5.0 °C 1026.3 hPa ENE 6.4 km/h 17.7 km/h 54 % 0.0 mm
13:27 14.3 °C 5.4 °C 1026.3 hPa NNE 6.4 km/h 17.7 km/h 55 % 0.0 mm
13:32 14.3 °C 5.9 °C 1026.3 hPa NE 4.8 km/h 17.7 km/h 57 % 0.0 mm
13:37 14.4 °C 5.2 °C 1026.3 hPa NE 8.0 km/h 20.9 km/h 54 % 0.0 mm
13:42 14.4 °C 5.5 °C 1026.0 hPa North 3.2 km/h 20.9 km/h 55 % 0.0 mm
13:47 14.7 °C 6.3 °C 1026.0 hPa ENE 11.3 km/h 19.3 km/h 57 % 0.0 mm
13:52 14.8 °C 5.8 °C 1026.0 hPa NNE 14.5 km/h 16.1 km/h 55 % 0.0 mm
13:57 14.8 °C 5.3 °C 1026.0 hPa NE 6.4 km/h 17.7 km/h 53 % 0.0 mm
14:02 14.9 °C 5.9 °C 1026.0 hPa North 4.8 km/h 24.1 km/h 55 % 0.0 mm
14:07 15.3 °C 5.8 °C 1026.0 hPa ENE 6.4 km/h 24.1 km/h 53 % 0.0 mm
14:12 15.5 °C 6.0 °C 1026.0 hPa NE 9.7 km/h 24.1 km/h 53 % 0.0 mm
14:17 15.2 °C 5.4 °C 1026.0 hPa NE 8.0 km/h 20.9 km/h 52 % 0.0 mm
14:22 15.4 °C 6.1 °C 1026.0 hPa ESE 4.8 km/h 20.9 km/h 54 % 0.0 mm
14:27 15.4 °C 5.9 °C 1026.0 hPa ENE 14.5 km/h 20.9 km/h 53 % 0.0 mm
14:32 15.6 °C 6.1 °C 1026.0 hPa ENE 9.7 km/h 20.9 km/h 53 % 0.0 mm
14:37 15.8 °C 6.5 °C 1026.0 hPa NE 9.7 km/h 20.9 km/h 54 % 0.0 mm
14:42 16.1 °C 6.8 °C 1025.6 hPa NE 11.3 km/h 17.7 km/h 54 % 0.0 mm
14:47 15.9 °C 6.3 °C 1025.6 hPa East 8.0 km/h 16.1 km/h 53 % 0.0 mm
14:52 15.8 °C 6.0 °C 1025.6 hPa NNE 8.0 km/h 17.7 km/h 52 % 0.0 mm
14:57 15.9 °C 6.1 °C 1025.6 hPa NNE 11.3 km/h 17.7 km/h 52 % 0.0 mm
15:02 16.1 °C 6.5 °C 1025.6 hPa NNW 8.0 km/h 17.7 km/h 53 % 0.0 mm
15:07 16.2 °C 7.1 °C 1025.3 hPa NE 9.7 km/h 16.1 km/h 55 % 0.0 mm
15:12 16.3 °C 7.2 °C 1025.3 hPa ENE 6.4 km/h 17.7 km/h 55 % 0.0 mm
15:17 16.4 °C 6.8 °C 1025.3 hPa East 3.2 km/h 17.7 km/h 53 % 0.0 mm
15:22 16.5 °C 6.6 °C 1025.3 hPa NE 11.3 km/h 16.1 km/h 52 % 0.0 mm
15:27 16.4 °C 5.9 °C 1025.3 hPa East 6.4 km/h 17.7 km/h 50 % 0.0 mm
15:32 16.4 °C 6.5 °C 1025.3 hPa NNW 6.4 km/h 17.7 km/h 52 % 0.0 mm
15:37 16.7 °C 6.8 °C 1025.3 hPa NE 11.3 km/h 17.7 km/h 52 % 0.0 mm
15:42 16.8 °C 7.4 °C 1025.3 hPa NNE 3.2 km/h 14.5 km/h 54 % 0.0 mm
15:47 16.9 °C 7.0 °C 1024.9 hPa East 3.2 km/h 12.9 km/h 52 % 0.0 mm
15:52 16.8 °C 6.3 °C 1024.9 hPa NE 8.0 km/h 12.9 km/h 50 % 0.0 mm
15:57 16.9 °C 7.3 °C 1024.9 hPa East 4.8 km/h 16.1 km/h 53 % 0.0 mm
16:02 17.1 °C 7.4 °C 1024.9 hPa ENE 4.8 km/h 16.1 km/h 53 % 0.0 mm
16:07 17.2 °C 7.0 °C 1024.9 hPa NNE 8.0 km/h 14.5 km/h 51 % 0.0 mm
16:12 17.2 °C 6.7 °C 1024.9 hPa ENE 4.8 km/h 14.5 km/h 50 % 0.0 mm
16:17 17.4 °C 7.2 °C 1024.6 hPa NE 14.5 km/h 16.1 km/h 51 % 0.0 mm
16:22 17.2 °C 7.0 °C 1024.6 hPa ENE 6.4 km/h 19.3 km/h 51 % 0.0 mm
16:27 17.3 °C 7.1 °C 1024.6 hPa NNE 14.5 km/h 19.3 km/h 51 % 0.0 mm
16:32 17.2 °C 7.0 °C 1024.6 hPa North 16.1 km/h 19.3 km/h 51 % 0.0 mm
16:37 17.4 °C 6.9 °C 1024.6 hPa ENE 8.0 km/h 19.3 km/h 50 % 0.0 mm
16:42 17.5 °C 6.7 °C 1024.6 hPa ENE 16.1 km/h 22.5 km/h 49 % 0.0 mm
16:47 17.7 °C 7.1 °C 1024.3 hPa NE 8.0 km/h 22.5 km/h 50 % 0.0 mm
16:52 17.6 °C 6.5 °C 1024.3 hPa NE 19.3 km/h 19.3 km/h 48 % 0.0 mm
16:57 17.7 °C 6.2 °C 1024.3 hPa NNE 11.3 km/h 24.1 km/h 47 % 0.0 mm
17:02 17.6 °C 6.5 °C 1024.3 hPa NE 8.0 km/h 24.1 km/h 48 % 0.0 mm
17:07 17.7 °C 6.5 °C 1024.3 hPa ENE 8.0 km/h 20.9 km/h 48 % 0.0 mm
17:12 17.7 °C 7.1 °C 1024.3 hPa NNE 14.5 km/h 20.9 km/h 50 % 0.0 mm
17:17 17.7 °C 6.8 °C 1024.3 hPa NE 12.9 km/h 19.3 km/h 49 % 0.0 mm
17:22 17.9 °C 7.3 °C 1024.3 hPa ENE 3.2 km/h 19.3 km/h 50 % 0.0 mm
17:27 17.9 °C 7.0 °C 1024.3 hPa ENE 14.5 km/h 19.3 km/h 49 % 0.0 mm
17:32 18.0 °C 7.7 °C 1023.9 hPa ENE 6.4 km/h 20.9 km/h 51 % 0.0 mm
17:37 17.9 °C 7.3 °C 1023.9 hPa NE 14.5 km/h 20.9 km/h 50 % 0.0 mm
17:42 17.9 °C 7.3 °C 1023.9 hPa East 12.9 km/h 20.9 km/h 50 % 0.0 mm
17:47 17.9 °C 7.3 °C 1023.9 hPa NE 14.5 km/h 19.3 km/h 50 % 0.0 mm
17:52 17.8 °C 7.2 °C 1023.9 hPa ENE 14.5 km/h 19.3 km/h 50 % 0.0 mm
17:57 17.8 °C 7.5 °C 1023.9 hPa NE 12.9 km/h 20.9 km/h 51 % 0.0 mm
18:02 17.9 °C 7.6 °C 1023.9 hPa NE 4.8 km/h 20.9 km/h 51 % 0.0 mm
18:12 17.9 °C 7.6 °C 1023.9 hPa NNE 6.4 km/h 17.7 km/h 51 % 0.0 mm
18:17 17.9 °C 7.6 °C 1023.9 hPa NE 12.9 km/h 17.7 km/h 51 % 0.0 mm
18:22 17.9 °C 7.9 °C 1023.9 hPa ENE 14.5 km/h 16.1 km/h 52 % 0.0 mm
18:27 17.9 °C 7.9 °C 1023.9 hPa ENE 11.3 km/h 16.1 km/h 52 % 0.0 mm
18:32 17.8 °C 8.1 °C 1023.9 hPa NE 8.0 km/h 16.1 km/h 53 % 0.0 mm
18:37 17.8 °C 7.5 °C 1023.9 hPa ENE 4.8 km/h 16.1 km/h 51 % 0.0 mm
18:42 17.8 °C 8.1 °C 1023.9 hPa ENE 9.7 km/h 16.1 km/h 53 % 0.0 mm
18:47 17.7 °C 8.0 °C 1023.9 hPa NE 8.0 km/h 14.5 km/h 53 % 0.0 mm
18:52 17.5 °C 7.8 °C 1023.9 hPa NE 12.9 km/h 17.7 km/h 53 % 0.0 mm
18:57 17.4 °C 7.7 °C 1023.9 hPa ENE 6.4 km/h 19.3 km/h 53 % 0.0 mm
19:02 17.4 °C 8.0 °C 1023.9 hPa ENE 9.7 km/h 19.3 km/h 54 % 0.0 mm
19:07 17.4 °C 8.0 °C 1023.9 hPa NE 4.8 km/h 17.7 km/h 54 % 0.0 mm
19:12 17.2 °C 7.5 °C 1024.3 hPa East 11.3 km/h 17.7 km/h 53 % 0.0 mm
19:22 17.0 °C 7.6 °C 1024.3 hPa ENE 8.0 km/h 14.5 km/h 54 % 0.0 mm
19:27 16.9 °C 7.5 °C 1024.3 hPa ENE 8.0 km/h 14.5 km/h 54 % 0.0 mm
19:32 16.8 °C 7.7 °C 1024.3 hPa ENE 6.4 km/h 14.5 km/h 55 % 0.0 mm
19:37 16.7 °C 7.6 °C 1024.3 hPa ENE 8.0 km/h 14.5 km/h 55 % 0.0 mm
19:42 16.6 °C 7.5 °C 1024.3 hPa NE 3.2 km/h 12.9 km/h 55 % 0.0 mm
19:47 16.4 °C 7.6 °C 1024.3 hPa ENE 8.0 km/h 12.9 km/h 56 % 0.0 mm
19:52 16.2 °C 7.4 °C 1024.3 hPa NE 6.4 km/h 12.9 km/h 56 % 0.0 mm
19:57 16.0 °C 7.2 °C 1024.3 hPa ENE 4.8 km/h 12.9 km/h 56 % 0.0 mm
20:02 15.8 °C 7.3 °C 1024.3 hPa NE 4.8 km/h 11.3 km/h 57 % 0.0 mm
20:07 15.6 °C 7.4 °C 1024.3 hPa NNE 6.4 km/h 11.3 km/h 58 % 0.0 mm
20:12 15.3 °C 7.1 °C 1024.6 hPa NE 4.8 km/h 11.3 km/h 58 % 0.0 mm
20:17 15.1 °C 7.1 °C 1024.6 hPa NE 6.4 km/h 11.3 km/h 59 % 0.0 mm
20:22 14.9 °C 7.2 °C 1024.6 hPa NE 6.4 km/h 11.3 km/h 60 % 0.0 mm
20:27 14.8 °C 7.1 °C 1024.6 hPa NNE 8.0 km/h 9.7 km/h 60 % 0.0 mm
20:37 14.7 °C 7.0 °C 1024.6 hPa NE 9.7 km/h 12.9 km/h 60 % 0.0 mm
20:42 14.6 °C 6.9 °C 1024.9 hPa NE 8.0 km/h 12.9 km/h 60 % 0.0 mm
20:47 14.4 °C 7.0 °C 1024.6 hPa NE 6.4 km/h 12.9 km/h 61 % 0.0 mm
20:52 14.3 °C 7.1 °C 1024.6 hPa NE 6.4 km/h 11.3 km/h 62 % 0.0 mm
20:57 14.2 °C 7.3 °C 1024.9 hPa NNE 9.7 km/h 11.3 km/h 63 % 0.0 mm
21:02 14.1 °C 7.4 °C 1024.9 hPa NNE 11.3 km/h 14.5 km/h 64 % 0.0 mm
21:07 13.7 °C 7.5 °C 1024.9 hPa NE 3.2 km/h 14.5 km/h 66 % 0.0 mm
21:12 13.3 °C 7.3 °C 1024.9 hPa NNW 4.8 km/h 14.5 km/h 67 % 0.0 mm
21:17 13.1 °C 7.3 °C 1024.9 hPa NNW 3.2 km/h 11.3 km/h 68 % 0.0 mm
21:22 12.9 °C 7.3 °C 1024.9 hPa North 3.2 km/h 9.7 km/h 69 % 0.0 mm
21:27 12.8 °C 7.3 °C 1024.9 hPa NNW 4.8 km/h 9.7 km/h 69 % 0.0 mm
21:32 12.7 °C 7.2 °C 1024.9 hPa NNW 3.2 km/h 8.0 km/h 69 % 0.0 mm
21:37 12.4 °C 7.1 °C 1024.9 hPa North 6.4 km/h 8.0 km/h 70 % 0.0 mm
21:42 12.3 °C 7.0 °C 1024.9 hPa NNE 4.8 km/h 8.0 km/h 70 % 0.0 mm
21:47 12.2 °C 7.1 °C 1024.9 hPa North 6.4 km/h 8.0 km/h 71 % 0.0 mm
21:52 11.9 °C 6.8 °C 1024.9 hPa NNW 3.2 km/h 8.0 km/h 71 % 0.0 mm
21:57 11.8 °C 6.9 °C 1024.9 hPa NNE 3.2 km/h 8.0 km/h 72 % 0.0 mm
22:02 11.7 °C 7.0 °C 1024.9 hPa North 4.8 km/h 8.0 km/h 73 % 0.0 mm
22:07 11.8 °C 7.1 °C 1024.9 hPa NNW 4.8 km/h 6.4 km/h 73 % 0.0 mm
22:12 11.8 °C 7.1 °C 1024.9 hPa NW 4.8 km/h 6.4 km/h 73 % 0.0 mm
22:17 11.8 °C 6.9 °C 1024.9 hPa North 3.2 km/h 8.0 km/h 72 % 0.0 mm
22:22 11.8 °C 6.9 °C 1024.9 hPa Calm   8.0 km/h 72 % 0.0 mm
22:27 11.6 °C 6.7 °C 1024.9 hPa NE 1.6 km/h 9.7 km/h 72 % 0.0 mm
22:32 11.5 °C 6.8 °C 1025.3 hPa North 1.6 km/h 9.7 km/h 73 % 0.0 mm
22:37 11.4 °C 6.7 °C 1025.3 hPa Calm   9.7 km/h 73 % 0.0 mm
22:42 11.6 °C 6.9 °C 1025.3 hPa NNE 8.0 km/h 9.7 km/h 73 % 0.0 mm
22:47 11.6 °C 6.7 °C 1025.3 hPa NNE 4.8 km/h 9.7 km/h 72 % 0.0 mm
22:52 11.6 °C 6.7 °C 1025.3 hPa NNE 6.4 km/h 9.7 km/h 72 % 0.0 mm
22:57 11.5 °C 6.8 °C 1025.3 hPa NNE 3.2 km/h 9.7 km/h 73 % 0.0 mm
23:02 11.4 °C 6.7 °C 1025.3 hPa NNE 4.8 km/h 9.7 km/h 73 % 0.0 mm
23:07 11.4 °C 6.7 °C 1025.3 hPa NNE 3.2 km/h 12.9 km/h 73 % 0.0 mm
23:12 11.3 °C 6.6 °C 1025.3 hPa North 3.2 km/h 12.9 km/h 73 % 0.0 mm
23:17 11.2 °C 6.7 °C 1025.3 hPa NNE 3.2 km/h 12.9 km/h 74 % 0.0 mm
23:22 11.1 °C 6.6 °C 1025.3 hPa NE 3.2 km/h 6.4 km/h 74 % 0.0 mm
23:27 11.1 °C 6.6 °C 1025.3 hPa NNE 6.4 km/h 8.0 km/h 74 % 0.0 mm
23:32 11.1 °C 6.6 °C 1025.3 hPa NE 4.8 km/h 8.0 km/h 74 % 0.0 mm
23:37 11.0 °C 6.5 °C 1025.3 hPa NE 6.4 km/h 8.0 km/h 74 % 0.0 mm
23:42 11.2 °C 6.7 °C 1025.3 hPa NNE 6.4 km/h 11.3 km/h 74 % 0.0 mm
23:47 11.1 °C 6.6 °C 1025.3 hPa North 3.2 km/h 12.9 km/h 74 % 0.0 mm
23:52 10.9 °C 6.4 °C 1024.9 hPa Calm   12.9 km/h 74 % 0.0 mm
23:57 10.8 °C 6.5 °C 1024.9 hPa NNE 1.6 km/h 9.7 km/h 75 % 0.0 mm
Meteo18
Compliments of Weather Underground - 4 mb

Script developed by  Jim McMurry - jmcmurry@mwt.net Adapted for the template by  Wim van der Kuil - Leuven-Template.eu

You find our weather info also at:

European Weather Network

Weather Underground

Equipment we use:

Weather-station
Davis Vue

Weather-program
Meteohub

Weather-server
Raspberry PI 2 B+

Provider
1 and 1

Davis Vue

Meteohub

Raspberry PI 2 B+

1 and 1